NWS Watch, Warning, Advisory or Statement is in effect for Boone County, KY. View Alert

Weather Station Data

Station Data Captured at Five Minute Intervals Since Midnight


Date Time Temp. RH % Dew Pt. Wind Speed Wind Dir. Peak Wind Wind Chill Pressure Precip. Solar W/m2 ET
11/12/18 2:45p 41.2 67 31.1 1.0 ENE 4.0 41.2 30.206 0.00 36 0.000
11/12/18 2:40p 41.3 68 31.5 1.0 NE 3.0 41.3 30.212 0.00 38 0.000
11/12/18 2:35p 41.4 67 31.3 1.0 NE 3.0 41.4 30.215 0.00 36 0.000
11/12/18 2:30p 41.5 67 31.4 0.0 NE 2.0 41.5 30.219 0.00 27 0.000
11/12/18 2:25p 41.5 67 31.4 1.0 NE 2.0 41.5 30.222 0.00 24 0.000
11/12/18 2:20p 41.6 67 31.4 1.0 NNE 3.0 41.6 30.220 0.00 30 0.000
11/12/18 2:15p 41.6 65 30.7 1.0 NE 2.0 41.6 30.224 0.00 44 0.000
11/12/18 2:10p 41.6 65 30.7 1.0 NE 3.0 41.6 30.224 0.00 47 0.000
11/12/18 2:05p 41.7 65 30.8 1.0 ENE 2.0 41.7 30.221 0.00 45 0.000
11/12/18 2:00p 41.8 64 30.5 0.0 NE 2.0 41.8 30.219 0.00 48 0.001
11/12/18 1:55p 42.0 64 30.7 1.0 ENE 3.0 42.0 30.223 0.00 56 0.000
11/12/18 1:50p 42.0 64 30.7 1.0 ENE 3.0 42.0 30.224 0.00 61 0.000
11/12/18 1:45p 42.1 64 30.8 1.0 NNE 2.0 42.1 30.228 0.00 60 0.000
11/12/18 1:40p 42.2 65 31.3 1.0 NNE 3.0 42.2 30.228 0.00 51 0.000
11/12/18 1:35p 42.3 65 31.4 0.0 NE 2.0 42.3 30.226 0.00 44 0.000
11/12/18 1:30p 42.4 64 31.1 1.0 NNW 5.0 42.4 30.231 0.00 51 0.000
11/12/18 1:25p 42.4 64 31.1 2.0 NNE 5.0 42.4 30.238 0.00 56 0.000
11/12/18 1:20p 42.3 63 30.6 1.0 NNE 3.0 42.3 30.233 0.00 62 0.000
11/12/18 1:15p 42.3 63 30.6 0.0 ENE 2.0 42.3 30.228 0.00 68 0.000
11/12/18 1:10p 42.2 64 30.9 1.0 NE 2.0 42.2 30.223 0.00 81 0.000
11/12/18 1:05p 42.1 64 30.8 1.0 NE 2.0 42.1 30.225 0.00 59 0.000
11/12/18 1:00p 42.0 63 30.3 1.0 ENE 2.0 42.0 30.229 0.00 47 0.002
11/12/18 12:55p 42.1 64 30.8 1.0 NE 3.0 42.1 30.226 0.00 54 0.000
11/12/18 12:50p 42.3 64 31.0 0.0 NE 1.0 42.3 30.226 0.00 51 0.000
11/12/18 12:45p 42.4 63 30.7 2.0 NE 4.0 42.4 30.226 0.00 61 0.000
11/12/18 12:40p 42.4 63 30.7 2.0 NNW 4.0 42.4 30.238 0.00 47 0.000
11/12/18 12:35p 42.5 63 30.8 1.0 NNE 3.0 42.5 30.241 0.00 43 0.000
11/12/18 12:30p 42.5 63 30.8 2.0 N 3.0 42.5 30.238 0.00 59 0.000
11/12/18 12:25p 42.5 64 31.2 1.0 NE 3.0 42.5 30.241 0.00 78 0.000
11/12/18 12:20p 42.4 64 31.1 1.0 NE 2.0 42.4 30.240 0.00 107 0.000
11/12/18 12:15p 42.2 64 30.9 0.0 ENE 2.0 42.2 30.238 0.00 102 0.000
11/12/18 12:10p 42.2 64 30.9 1.0 ENE 3.0 42.2 30.235 0.00 134 0.000
11/12/18 12:05p 42.1 65 31.2 1.0 NE 2.0 42.1 30.231 0.00 171 0.000
11/12/18 12:00p 41.8 64 30.5 1.0 E 2.0 41.8 30.229 0.00 167 0.002
11/12/18 11:55a 41.6 64 30.3 1.0 E 2.0 41.6 30.231 0.00 182 0.000
11/12/18 11:50a 41.4 65 30.5 1.0 E 3.0 41.4 30.231 0.00 150 0.000
11/12/18 11:45a 41.3 67 31.2 1.0 E 2.0 41.3 30.233 0.00 143 0.000
11/12/18 11:40a 41.1 68 31.3 1.0 NE 2.0 41.1 30.229 0.00 157 0.000
11/12/18 11:35a 40.8 69 31.4 1.0 NE 3.0 40.8 30.225 0.00 153 0.000
11/12/18 11:30a 40.5 70 31.5 0.0 NE 2.0 40.5 30.228 0.00 164 0.000
11/12/18 11:25a 40.3 69 30.9 0.0 NE 2.0 40.3 30.227 0.00 153 0.000
11/12/18 11:20a 40.1 68 30.4 1.0 NE 3.0 40.1 30.237 0.00 131 0.000
11/12/18 11:15a 40.0 70 31.0 1.0 ENE 3.0 40.0 30.233 0.00 122 0.000
11/12/18 11:10a 39.9 69 30.5 1.0 ENE 3.0 39.9 30.238 0.00 95 0.000
11/12/18 11:05a 39.8 68 30.1 1.0 NE 2.0 39.8 30.239 0.00 84 0.000
11/12/18 11:00a 39.8 69 30.5 0.0 ENE 2.0 39.8 30.243 0.00 95 0.002
11/12/18 10:55a 39.7 68 30.0 2.0 ENE 3.0 39.4 30.242 0.00 125 0.000
11/12/18 10:50a 39.5 69 30.2 1.0 ENE 3.0 39.5 30.243 0.00 125 0.000
11/12/18 10:45a 39.4 68 29.7 0.0 ENE 2.0 39.4 30.244 0.00 93 0.000
11/12/18 10:40a 39.2 71 30.6 0.0 ENE 1.0 39.2 30.249 0.00 86 0.000
11/12/18 10:35a 38.9 70 29.9 1.0 ENE 2.0 38.9 30.251 0.00 100 0.000
11/12/18 10:30a 38.5 70 29.6 1.0 ENE 2.0 38.5 30.253 0.00 130 0.000
11/12/18 10:25a 38.2 71 29.6 0.0 ENE 1.0 38.2 30.256 0.00 116 0.000
11/12/18 10:20a 37.9 70 29.0 1.0 NE 2.0 37.9 30.256 0.00 99 0.000
11/12/18 10:15a 37.7 70 28.8 1.0 ENE 3.0 37.7 30.251 0.00 82 0.000
11/12/18 10:10a 37.4 70 28.5 1.0 ENE 3.0 37.4 30.246 0.00 95 0.000
11/12/18 10:05a 37.3 70 28.4 1.0 ENE 3.0 37.3 30.249 0.00 87 0.000
11/12/18 10:00a 37.1 70 28.2 1.0 ENE 3.0 37.1 30.248 0.00 72 0.001
11/12/18 9:55a 37.0 69 27.8 1.0 E 3.0 37.0 30.258 0.00 62 0.000
11/12/18 9:50a 37.0 69 27.8 1.0 E 3.0 37.0 30.255 0.00 64 0.000
11/12/18 9:45a 37.0 69 27.8 2.0 ENE 4.0 36.5 30.255 0.00 63 0.000
11/12/18 9:40a 36.9 70 28.0 1.0 ENE 3.0 36.9 30.260 0.00 70 0.000
11/12/18 9:35a 36.8 70 27.9 1.0 E 3.0 36.8 30.262 0.00 65 0.000
11/12/18 9:30a 36.8 70 27.9 2.0 ESE 4.0 36.2 30.265 0.00 63 0.000
11/12/18 9:25a 36.6 69 27.4 2.0 ESE 4.0 36.0 30.264 0.00 52 0.000
11/12/18 9:20a 36.6 69 27.4 2.0 ESE 6.0 36.0 30.261 0.00 58 0.000
11/12/18 9:15a 36.4 70 27.5 2.0 ESE 3.0 35.8 30.263 0.00 60 0.000
11/12/18 9:10a 36.1 71 27.6 1.0 E 3.0 36.1 30.262 0.00 49 0.000
11/12/18 9:05a 35.9 72 27.7 1.0 ENE 3.0 35.9 30.259 0.00 59 0.000
11/12/18 9:00a 35.7 73 27.9 1.0 NE 3.0 35.7 30.254 0.00 51 0.001
11/12/18 8:55a 35.6 72 27.5 2.0 NE 3.0 34.9 30.260 0.00 38 0.000
11/12/18 8:50a 35.3 70 26.5 1.0 E 3.0 35.3 30.272 0.00 35 0.000
11/12/18 8:45a 35.2 71 26.7 1.0 E 3.0 35.2 30.278 0.00 30 0.000
11/12/18 8:40a 35.0 71 26.5 1.0 E 2.0 35.0 30.278 0.00 25 0.000
11/12/18 8:35a 34.9 72 26.8 1.0 E 2.0 34.9 30.282 0.00 25 0.000
11/12/18 8:30a 34.7 73 26.9 1.0 ENE 2.0 34.7 30.285 0.00 22 0.000
11/12/18 8:25a 34.5 73 26.7 1.0 ENE 2.0 34.5 30.284 0.00 16 0.000
11/12/18 8:20a 34.3 74 26.9 1.0 NE 2.0 34.3 30.282 0.00 12 0.000
11/12/18 8:15a 34.1 74 26.7 1.0 NE 2.0 34.1 30.286 0.00 13 0.000
11/12/18 8:10a 33.8 75 26.7 0.0 NE 1.0 33.8 30.290 0.00 15 0.000
11/12/18 8:05a 33.6 76 26.8 0.0 NE 1.0 33.6 30.292 0.00 16 0.000
11/12/18 8:00a 33.3 76 26.5 1.0 NE 2.0 33.3 30.290 0.00 11 0.000
11/12/18 7:55a 33.2 78 27.1 0.0 NE 1.0 33.2 30.293 0.00 8 0.000
11/12/18 7:50a 33.0 77 26.6 0.0 NE 1.0 33.0 30.297 0.00 6 0.000
11/12/18 7:45a 32.8 77 26.4 0.0 NE 1.0 32.8 30.290 0.00 1 0.000
11/12/18 7:40a 32.8 78 26.7 0.0 NE 1.0 32.8 30.292 0.00 3 0.000
11/12/18 7:35a 32.7 79 26.9 0.0 NE 1.0 32.7 30.293 0.00 3 0.000
11/12/18 7:30a 32.6 78 26.5 0.0 --- 0.0 32.6 30.289 0.00 1 0.000
11/12/18 7:25a 32.5 77 26.1 0.0 --- 0.0 32.5 30.287 0.00 0 0.000
11/12/18 7:20a 32.4 77 26.0 0.0 NE 2.0 32.4 30.283 0.00 0 0.000
11/12/18 7:15a 32.3 77 25.9 0.0 NE 1.0 32.3 30.281 0.00 0 0.000
11/12/18 7:10a 32.0 77 25.6 0.0 --- 0.0 32.0 30.295 0.00 0 0.000
11/12/18 7:05a 31.7 77 25.3 0.0 NE 1.0 31.7 30.294 0.00 0 0.000
11/12/18 7:00a 31.6 78 25.5 0.0 --- 0.0 31.6 30.295 0.00 0 0.000
11/12/18 6:55a 31.5 79 25.7 0.0 --- 0.0 31.5 30.295 0.00 0 0.000
11/12/18 6:50a 31.4 78 25.3 0.0 --- 0.0 31.4 30.291 0.00 0 0.000
11/12/18 6:45a 31.4 78 25.3 0.0 --- 0.0 31.4 30.288 0.00 0 0.000
11/12/18 6:40a 31.4 78 25.3 0.0 NE 1.0 31.4 30.288 0.00 0 0.000
11/12/18 6:35a 31.4 77 25.0 0.0 NE 1.0 31.4 30.283 0.00 0 0.000
11/12/18 6:30a 31.3 77 24.9 0.0 NNE 1.0 31.3 30.285 0.00 0 0.000
11/12/18 6:25a 31.3 76 24.6 0.0 --- 0.0 31.3 30.291 0.00 0 0.000
11/12/18 6:20a 31.4 76 24.7 0.0 --- 0.0 31.4 30.293 0.00 0 0.000
11/12/18 6:15a 31.4 76 24.7 0.0 NNE 1.0 31.4 30.291 0.00 0 0.000
11/12/18 6:10a 31.5 76 24.8 0.0 NNE 1.0 31.5 30.290 0.00 0 0.000
11/12/18 6:05a 31.6 76 24.9 0.0 NNE 1.0 31.6 30.287 0.00 0 0.000
11/12/18 6:00a 31.7 75 24.7 0.0 NNE 1.0 31.7 30.288 0.00 0 0.000
11/12/18 5:55a 31.6 75 24.6 0.0 NNE 1.0 31.6 30.295 0.00 0 0.000
11/12/18 5:50a 31.5 76 24.8 0.0 NNE 1.0 31.5 30.297 0.00 0 0.000
11/12/18 5:45a 31.3 76 24.6 0.0 NNE 1.0 31.3 30.294 0.00 0 0.000
11/12/18 5:40a 31.0 76 24.3 0.0 --- 0.0 31.0 30.295 0.00 0 0.000
11/12/18 5:35a 30.8 77 24.4 0.0 NNE 1.0 30.8 30.293 0.00 0 0.000
11/12/18 5:30a 30.7 78 24.7 1.0 NNE 1.0 30.7 30.290 0.00 0 0.000
11/12/18 5:25a 30.6 78 24.6 1.0 NNE 1.0 30.6 30.289 0.00 0 0.000
11/12/18 5:20a 30.7 78 24.7 0.0 NNE 1.0 30.7 30.284 0.00 0 0.000
11/12/18 5:15a 30.8 78 24.7 0.0 --- 0.0 30.8 30.278 0.00 0 0.000
11/12/18 5:10a 30.9 77 24.5 0.0 NNE 1.0 30.9 30.277 0.00 0 0.000
11/12/18 5:05a 30.7 78 24.7 0.0 NNE 1.0 30.7 30.282 0.00 0 0.000
11/12/18 5:00a 30.5 79 24.8 0.0 NNE 1.0 30.5 30.289 0.00 0 0.000
11/12/18 4:55a 30.1 80 24.7 0.0 NNE 1.0 30.1 30.291 0.00 0 0.000
11/12/18 4:50a 29.8 80 24.4 0.0 NNE 1.0 29.8 30.290 0.00 0 0.000
11/12/18 4:45a 29.5 81 24.4 0.0 --- 0.0 29.5 30.293 0.00 0 0.000
11/12/18 4:40a 29.5 81 24.4 0.0 NNE 1.0 29.5 30.292 0.00 0 0.000
11/12/18 4:35a 29.4 81 24.3 0.0 NNE 1.0 29.4 30.288 0.00 0 0.000
11/12/18 4:30a 29.5 80 24.1 0.0 --- 0.0 29.5 30.285 0.00 0 0.000
11/12/18 4:25a 29.7 80 24.3 0.0 NNE 1.0 29.7 30.284 0.00 0 0.000
11/12/18 4:20a 29.8 80 24.4 0.0 NNE 1.0 29.8 30.287 0.00 0 0.000
11/12/18 4:15a 30.1 78 24.1 1.0 NNE 3.0 30.1 30.286 0.00 0 0.000
11/12/18 4:10a 30.4 78 24.4 1.0 NE 2.0 30.4 30.289 0.00 0 0.000
11/12/18 4:05a 30.4 78 24.4 0.0 --- 0.0 30.4 30.291 0.00 0 0.000
11/12/18 4:00a 30.5 78 24.5 0.0 --- 0.0 30.5 30.296 0.00 0 0.000
11/12/18 3:55a 30.6 78 24.6 0.0 NE 1.0 30.6 30.300 0.00 0 0.000
11/12/18 3:50a 30.7 77 24.3 0.0 --- 0.0 30.7 30.296 0.00 0 0.000
11/12/18 3:45a 30.9 77 24.5 0.0 NE 1.0 30.9 30.296 0.00 0 0.000
11/12/18 3:40a 31.1 76 24.4 0.0 NE 1.0 31.1 30.294 0.00 0 0.000
11/12/18 3:35a 31.2 76 24.5 0.0 --- 0.0 31.2 30.294 0.00 0 0.000
11/12/18 3:30a 31.5 74 24.2 0.0 NE 1.0 31.5 30.294 0.00 0 0.000
11/12/18 3:25a 31.7 74 24.4 0.0 --- 0.0 31.7 30.295 0.00 0 0.000
11/12/18 3:20a 31.8 74 24.5 0.0 NE 1.0 31.8 30.293 0.00 0 0.000
11/12/18 3:15a 31.9 74 24.6 0.0 NE 1.0 31.9 30.294 0.00 0 0.000
11/12/18 3:10a 32.1 74 24.7 1.0 NE 2.0 32.1 30.293 0.00 0 0.000
11/12/18 3:05a 32.2 73 24.5 0.0 --- 0.0 32.2 30.294 0.00 0 0.000
11/12/18 3:00a 32.2 73 24.5 0.0 --- 0.0 32.2 30.296 0.00 0 0.000
11/12/18 2:55a 32.2 73 24.5 0.0 NE 1.0 32.2 30.296 0.00 0 0.000
11/12/18 2:50a 32.3 73 24.6 0.0 NE 1.0 32.3 30.294 0.00 0 0.000
11/12/18 2:45a 32.3 73 24.6 0.0 NE 1.0 32.3 30.290 0.00 0 0.000
11/12/18 2:40a 32.2 73 24.5 0.0 NE 2.0 32.2 30.289 0.00 0 0.000
11/12/18 2:35a 32.1 73 24.4 1.0 NE 1.0 32.1 30.289 0.00 0 0.000
11/12/18 2:30a 32.0 74 24.6 1.0 NE 1.0 32.0 30.290 0.00 0 0.000
11/12/18 2:25a 31.8 75 24.8 0.0 NE 1.0 31.8 30.288 0.00 0 0.000
11/12/18 2:20a 31.7 76 25.0 0.0 NE 1.0 31.7 30.289 0.00 0 0.000
11/12/18 2:15a 31.3 77 24.9 1.0 NE 2.0 31.3 30.291 0.00 0 0.000
11/12/18 2:10a 31.1 77 24.7 1.0 NNE 2.0 31.1 30.295 0.00 0 0.000
11/12/18 2:05a 31.3 76 24.6 0.0 NNE 1.0 31.3 30.297 0.00 0 0.000
11/12/18 2:00a 31.6 75 24.6 0.0 --- 0.0 31.6 30.295 0.00 0 0.001
11/12/18 1:55a 31.7 74 24.4 0.0 NNE 1.0 31.7 30.294 0.00 0 0.000
11/12/18 1:50a 31.9 74 24.6 0.0 NNE 1.0 31.9 30.294 0.00 0 0.000
11/12/18 1:45a 31.9 74 24.6 1.0 NNE 2.0 31.9 30.295 0.00 0 0.000
11/12/18 1:40a 31.8 74 24.5 1.0 NNE 2.0 31.8 30.298 0.00 0 0.000
11/12/18 1:35a 32.1 75 25.1 0.0 NNE 1.0 32.1 30.294 0.00 0 0.000
11/12/18 1:30a 32.5 73 24.8 0.0 --- 0.0 32.5 30.292 0.00 0 0.000
11/12/18 1:25a 32.9 71 24.5 0.0 NNE 1.0 32.9 30.290 0.00 0 0.000
11/12/18 1:20a 33.4 71 25.0 1.0 NE 2.0 33.4 30.285 0.00 0 0.000
11/12/18 1:15a 34.1 69 25.0 1.0 NE 2.0 34.1 30.288 0.00 0 0.000
11/12/18 1:10a 34.7 65 24.1 1.0 NE 2.0 34.7 30.294 0.00 0 0.000
11/12/18 1:05a 35.1 63 23.8 0.0 --- 0.0 35.1 30.293 0.00 0 0.000
11/12/18 1:00a 35.3 63 24.0 0.0 --- 0.0 35.3 30.294 0.00 0 0.001
11/12/18 12:55a 35.5 63 24.1 0.0 NE 1.0 35.5 30.296 0.00 0 0.000
11/12/18 12:50a 35.6 63 24.2 0.0 NE 1.0 35.6 30.294 0.00 0 0.000
11/12/18 12:45a 35.6 63 24.2 0.0 --- 0.0 35.6 30.292 0.00 0 0.000
11/12/18 12:40a 35.6 63 24.2 0.0 --- 0.0 35.6 30.291 0.00 0 0.000
11/12/18 12:35a 35.6 62 23.9 0.0 --- 0.0 35.6 30.293 0.00 0 0.000
11/12/18 12:30a 35.6 62 23.9 0.0 --- 0.0 35.6 30.294 0.00 0 0.000
11/12/18 12:25a 35.5 63 24.1 0.0 --- 0.0 35.5 30.295 0.00 0 0.000
11/12/18 12:20a 35.4 63 24.0 0.0 --- 0.0 35.4 30.299 0.00 0 0.000
11/12/18 12:15a 35.3 63 24.0 0.0 --- 0.0 35.3 30.298 0.00 0 0.000
11/12/18 12:10a 35.3 63 24.0 0.0 --- 0.0 35.3 30.297 0.00 0 0.000
11/12/18 12:05a 35.4 64 24.4 0.0 --- 0.0 35.4 30.297 0.00 0 0.000
11/12/18 12:00a 35.4 64 24.4 0.0 --- 0.0 35.4 30.298 0.00 0 0.001

12,272 Page Views